sensor_id;sensor_type;location;lat;lon;timestamp;temperature;humidity
40654;DHT22;26344;45.532;9.232;2023-04-24T00:18:46;18.60;99.90
40654;DHT22;26344;45.532;9.232;2023-04-24T01:00:07;18.30;99.90
40654;DHT22;26344;45.532;9.232;2023-04-24T01:05:06;18.30;99.90
40654;DHT22;26344;45.532;9.232;2023-04-24T01:48:52;18.10;99.90
40654;DHT22;26344;45.532;9.232;2023-04-24T01:51:17;18.30;99.90
40654;DHT22;26344;45.532;9.232;2023-04-24T02:18:02;18.20;99.90
40654;DHT22;26344;45.532;9.232;2023-04-24T02:22:53;18.20;99.90
40654;DHT22;26344;45.532;9.232;2023-04-24T03:26:09;17.70;99.90
40654;DHT22;26344;45.532;9.232;2023-04-24T03:40:44;17.80;99.90
40654;DHT22;26344;45.532;9.232;2023-04-24T03:43:09;17.80;99.90
40654;DHT22;26344;45.532;9.232;2023-04-24T03:45:35;17.70;99.90
40654;DHT22;26344;45.532;9.232;2023-04-24T03:48:00;17.60;99.90
40654;DHT22;26344;45.532;9.232;2023-04-24T03:50:26;17.60;99.90
40654;DHT22;26344;45.532;9.232;2023-04-24T03:52:52;17.60;99.90
40654;DHT22;26344;45.532;9.232;2023-04-24T03:55:17;17.60;99.90
40654;DHT22;26344;45.532;9.232;2023-04-24T03:57:43;17.60;99.90
40654;DHT22;26344;45.532;9.232;2023-04-24T04:00:08;17.60;99.90
40654;DHT22;26344;45.532;9.232;2023-04-24T04:02:34;17.50;99.90
40654;DHT22;26344;45.532;9.232;2023-04-24T04:04:59;17.60;99.90
40654;DHT22;26344;45.532;9.232;2023-04-24T04:07:25;17.50;99.90
40654;DHT22;26344;45.532;9.232;2023-04-24T04:09:50;17.90;99.90
40654;DHT22;26344;45.532;9.232;2023-04-24T04:12:16;17.60;99.90
40654;DHT22;26344;45.532;9.232;2023-04-24T04:14:41;17.60;99.90
40654;DHT22;26344;45.532;9.232;2023-04-24T04:17:07;17.60;99.90
40654;DHT22;26344;45.532;9.232;2023-04-24T04:19:32;17.60;99.90
40654;DHT22;26344;45.532;9.232;2023-04-24T04:21:58;17.50;99.90
40654;DHT22;26344;45.532;9.232;2023-04-24T04:24:24;17.80;99.90
40654;DHT22;26344;45.532;9.232;2023-04-24T04:26:51;17.50;99.90
40654;DHT22;26344;45.532;9.232;2023-04-24T04:29:17;17.50;99.90
40654;DHT22;26344;45.532;9.232;2023-04-24T04:31:46;17.50;99.90
40654;DHT22;26344;45.532;9.232;2023-04-24T04:34:11;17.40;99.90
40654;DHT22;26344;45.532;9.232;2023-04-24T04:36:37;17.50;99.90
40654;DHT22;26344;45.532;9.232;2023-04-24T04:39:05;17.40;99.90
40654;DHT22;26344;45.532;9.232;2023-04-24T04:41:31;18.00;99.90
40654;DHT22;26344;45.532;9.232;2023-04-24T04:43:57;17.40;99.90
40654;DHT22;26344;45.532;9.232;2023-04-24T04:46:23;17.40;99.90
40654;DHT22;26344;45.532;9.232;2023-04-24T04:48:52;17.30;99.90
40654;DHT22;26344;45.532;9.232;2023-04-24T04:51:17;17.30;99.90
40654;DHT22;26344;45.532;9.232;2023-04-24T04:53:42;17.30;99.90
40654;DHT22;26344;45.532;9.232;2023-04-24T04:56:08;17.30;99.90
40654;DHT22;26344;45.532;9.232;2023-04-24T04:58:33;17.30;99.90
40654;DHT22;26344;45.532;9.232;2023-04-24T05:00:59;17.60;99.90
40654;DHT22;26344;45.532;9.232;2023-04-24T05:03:24;17.30;99.90
40654;DHT22;26344;45.532;9.232;2023-04-24T05:05:50;17.20;99.90
40654;DHT22;26344;45.532;9.232;2023-04-24T05:08:15;17.20;99.90
40654;DHT22;26344;45.532;9.232;2023-04-24T05:10:41;17.30;99.90
40654;DHT22;26344;45.532;9.232;2023-04-24T05:13:06;17.30;99.90
40654;DHT22;26344;45.532;9.232;2023-04-24T05:15:32;17.20;99.90
40654;DHT22;26344;45.532;9.232;2023-04-24T05:17:57;17.30;99.90
40654;DHT22;26344;45.532;9.232;2023-04-24T05:20:23;17.20;99.90
40654;DHT22;26344;45.532;9.232;2023-04-24T05:22:48;17.30;99.90
40654;DHT22;26344;45.532;9.232;2023-04-24T05:25:14;17.30;99.90
40654;DHT22;26344;45.532;9.232;2023-04-24T05:27:39;14.00;99.90
40654;DHT22;26344;45.532;9.232;2023-04-24T05:30:05;17.30;99.90
40654;DHT22;26344;45.532;9.232;2023-04-24T05:32:32;17.20;99.90
40654;DHT22;26344;45.532;9.232;2023-04-24T05:34:57;17.30;99.90
40654;DHT22;26344;45.532;9.232;2023-04-24T05:37:23;18.20;99.90
40654;DHT22;26344;45.532;9.232;2023-04-24T05:39:48;18.20;99.90
40654;DHT22;26344;45.532;9.232;2023-04-24T05:42:14;17.30;99.90
40654;DHT22;26344;45.532;9.232;2023-04-24T05:44:39;17.20;99.90
40654;DHT22;26344;45.532;9.232;2023-04-24T05:47:05;17.30;99.90
40654;DHT22;26344;45.532;9.232;2023-04-24T05:49:31;14.80;99.90
40654;DHT22;26344;45.532;9.232;2023-04-24T05:51:56;17.40;99.90
40654;DHT22;26344;45.532;9.232;2023-04-24T05:54:22;17.30;99.90
40654;DHT22;26344;45.532;9.232;2023-04-24T05:56:48;17.40;99.90
40654;DHT22;26344;45.532;9.232;2023-04-24T05:59:16;18.30;99.90
40654;DHT22;26344;45.532;9.232;2023-04-24T06:01:41;17.30;99.90
40654;DHT22;26344;45.532;9.232;2023-04-24T06:04:07;17.20;99.90
40654;DHT22;26344;45.532;9.232;2023-04-24T06:06:33;17.20;99.90
40654;DHT22;26344;45.532;9.232;2023-04-24T06:09:00;17.20;99.90
40654;DHT22;26344;45.532;9.232;2023-04-24T06:11:25;17.20;99.90
40654;DHT22;26344;45.532;9.232;2023-04-24T06:13:51;17.30;99.90
40654;DHT22;26344;45.532;9.232;2023-04-24T06:16:17;17.20;99.90
40654;DHT22;26344;45.532;9.232;2023-04-24T06:18:42;17.30;99.90
40654;DHT22;26344;45.532;9.232;2023-04-24T06:21:08;17.30;99.90
40654;DHT22;26344;45.532;9.232;2023-04-24T06:23:33;17.50;99.90
40654;DHT22;26344;45.532;9.232;2023-04-24T06:25:59;17.40;99.90
40654;DHT22;26344;45.532;9.232;2023-04-24T06:28:25;18.10;99.90
40654;DHT22;26344;45.532;9.232;2023-04-24T06:30:50;17.50;99.90
40654;DHT22;26344;45.532;9.232;2023-04-24T06:33:18;17.40;99.90
40654;DHT22;26344;45.532;9.232;2023-04-24T06:35:46;17.40;99.90
40654;DHT22;26344;45.532;9.232;2023-04-24T06:38:12;17.50;99.90
40654;DHT22;26344;45.532;9.232;2023-04-24T06:40:37;17.50;99.90
40654;DHT22;26344;45.532;9.232;2023-04-24T06:43:03;17.60;99.90
40654;DHT22;26344;45.532;9.232;2023-04-24T06:45:29;17.50;99.90
40654;DHT22;26344;45.532;9.232;2023-04-24T06:47:55;17.60;99.90
40654;DHT22;26344;45.532;9.232;2023-04-24T06:50:20;17.50;99.90
40654;DHT22;26344;45.532;9.232;2023-04-24T06:52:46;17.50;99.90
40654;DHT22;26344;45.532;9.232;2023-04-24T06:55:12;17.60;99.90
40654;DHT22;26344;45.532;9.232;2023-04-24T06:57:37;17.70;99.90
40654;DHT22;26344;45.532;9.232;2023-04-24T07:00:04;17.60;99.90
40654;DHT22;26344;45.532;9.232;2023-04-24T07:02:30;17.70;99.90
40654;DHT22;26344;45.532;9.232;2023-04-24T07:04:55;17.80;99.90
40654;DHT22;26344;45.532;9.232;2023-04-24T07:07:22;17.90;99.90
40654;DHT22;26344;45.532;9.232;2023-04-24T07:09:49;17.80;99.90
40654;DHT22;26344;45.532;9.232;2023-04-24T07:12:16;18.50;99.90
40654;DHT22;26344;45.532;9.232;2023-04-24T07:14:42;18.00;99.90
40654;DHT22;26344;45.532;9.232;2023-04-24T07:17:07;18.00;99.90
40654;DHT22;26344;45.532;9.232;2023-04-24T07:19:33;17.90;99.90
40654;DHT22;26344;45.532;9.232;2023-04-24T07:21:59;18.00;99.90
40654;DHT22;26344;45.532;9.232;2023-04-24T07:24:25;18.00;99.90
40654;DHT22;26344;45.532;9.232;2023-04-24T07:26:51;18.10;99.90
40654;DHT22;26344;45.532;9.232;2023-04-24T07:29:17;18.10;99.90
40654;DHT22;26344;45.532;9.232;2023-04-24T07:31:42;18.20;99.90
40654;DHT22;26344;45.532;9.232;2023-04-24T07:34:08;18.30;99.90
40654;DHT22;26344;45.532;9.232;2023-04-24T07:36:33;18.60;99.90
40654;DHT22;26344;45.532;9.232;2023-04-24T07:38:59;18.40;99.90
40654;DHT22;26344;45.532;9.232;2023-04-24T07:41:25;18.40;99.90
40654;DHT22;26344;45.532;9.232;2023-04-24T07:43:50;18.60;99.90
40654;DHT22;26344;45.532;9.232;2023-04-24T07:46:16;18.50;99.90
40654;DHT22;26344;45.532;9.232;2023-04-24T07:48:41;18.60;99.90
40654;DHT22;26344;45.532;9.232;2023-04-24T07:51:07;18.70;99.90
40654;DHT22;26344;45.532;9.232;2023-04-24T07:53:35;18.90;99.90
40654;DHT22;26344;45.532;9.232;2023-04-24T07:56:00;19.00;99.90
40654;DHT22;26344;45.532;9.232;2023-04-24T07:58:26;19.20;99.90
40654;DHT22;26344;45.532;9.232;2023-04-24T08:00:51;19.30;99.90
40654;DHT22;26344;45.532;9.232;2023-04-24T08:03:17;19.30;99.90
40654;DHT22;26344;45.532;9.232;2023-04-24T08:05:44;19.30;99.90
40654;DHT22;26344;45.532;9.232;2023-04-24T08:08:10;19.40;99.90
40654;DHT22;26344;45.532;9.232;2023-04-24T08:10:35;19.50;99.90
40654;DHT22;26344;45.532;9.232;2023-04-24T08:13:01;19.50;99.90
40654;DHT22;26344;45.532;9.232;2023-04-24T08:15:27;19.60;99.90
40654;DHT22;26344;45.532;9.232;2023-04-24T08:17:52;19.80;99.90
40654;DHT22;26344;45.532;9.232;2023-04-24T08:20:18;19.80;99.90
40654;DHT22;26344;45.532;9.232;2023-04-24T08:22:43;19.90;99.90
40654;DHT22;26344;45.532;9.232;2023-04-24T08:25:10;20.00;99.90
40654;DHT22;26344;45.532;9.232;2023-04-24T08:27:36;20.10;99.90
40654;DHT22;26344;45.532;9.232;2023-04-24T08:30:04;20.20;99.90
40654;DHT22;26344;45.532;9.232;2023-04-24T08:32:30;20.20;99.90
40654;DHT22;26344;45.532;9.232;2023-04-24T08:34:56;20.20;99.90
40654;DHT22;26344;45.532;9.232;2023-04-24T08:37:22;20.30;99.90
40654;DHT22;26344;45.532;9.232;2023-04-24T08:39:48;20.40;99.90
40654;DHT22;26344;45.532;9.232;2023-04-24T08:42:13;20.60;99.90
40654;DHT22;26344;45.532;9.232;2023-04-24T08:44:40;20.60;99.90
40654;DHT22;26344;45.532;9.232;2023-04-24T08:47:06;20.70;99.90
40654;DHT22;26344;45.532;9.232;2023-04-24T08:49:32;20.80;99.90
40654;DHT22;26344;45.532;9.232;2023-04-24T08:51:58;21.00;99.90
40654;DHT22;26344;45.532;9.232;2023-04-24T08:54:25;21.00;99.80
40654;DHT22;26344;45.532;9.232;2023-04-24T08:56:50;21.30;99.00
40654;DHT22;26344;45.532;9.232;2023-04-24T08:59:18;21.40;98.70
40654;DHT22;26344;45.532;9.232;2023-04-24T09:01:45;21.40;98.00
40654;DHT22;26344;45.532;9.232;2023-04-24T09:04:10;21.50;98.00
40654;DHT22;26344;45.532;9.232;2023-04-24T09:06:41;21.60;97.60
40654;DHT22;26344;45.532;9.232;2023-04-24T09:09:09;21.70;97.40
40654;DHT22;26344;45.532;9.232;2023-04-24T09:11:36;21.90;97.00
40654;DHT22;26344;45.532;9.232;2023-04-24T09:14:02;22.00;96.80
40654;DHT22;26344;45.532;9.232;2023-04-24T09:16:28;22.10;96.90
40654;DHT22;26344;45.532;9.232;2023-04-24T09:18:55;22.10;96.30
40654;DHT22;26344;45.532;9.232;2023-04-24T09:21:23;22.10;96.70
40654;DHT22;26344;45.532;9.232;2023-04-24T09:23:58;22.20;96.40
40654;DHT22;26344;45.532;9.232;2023-04-24T09:26:25;22.40;95.50
40654;DHT22;26344;45.532;9.232;2023-04-24T09:28:53;22.60;95.00
40654;DHT22;26344;45.532;9.232;2023-04-24T09:31:18;22.60;94.50
40654;DHT22;26344;45.532;9.232;2023-04-24T09:33:53;22.70;95.00
40654;DHT22;26344;45.532;9.232;2023-04-24T09:36:19;22.90;94.90
40654;DHT22;26344;45.532;9.232;2023-04-24T09:38:44;22.90;94.30
40654;DHT22;26344;45.532;9.232;2023-04-24T09:41:13;22.90;94.80
40654;DHT22;26344;45.532;9.232;2023-04-24T09:43:38;22.90;94.50
40654;DHT22;26344;45.532;9.232;2023-04-24T09:46:07;22.90;94.30
40654;DHT22;26344;45.532;9.232;2023-04-24T09:48:33;23.10;94.10
40654;DHT22;26344;45.532;9.232;2023-04-24T09:51:00;23.20;93.70
40654;DHT22;26344;45.532;9.232;2023-04-24T09:53:26;23.30;93.50
40654;DHT22;26344;45.532;9.232;2023-04-24T09:55:52;23.40;93.20
40654;DHT22;26344;45.532;9.232;2023-04-24T09:58:18;20.30;92.40
40654;DHT22;26344;45.532;9.232;2023-04-24T10:00:49;23.50;93.20
40654;DHT22;26344;45.532;9.232;2023-04-24T10:03:14;23.50;93.30
40654;DHT22;26344;45.532;9.232;2023-04-24T10:05:44;23.60;93.20
40654;DHT22;26344;45.532;9.232;2023-04-24T10:08:11;23.80;93.40
40654;DHT22;26344;45.532;9.232;2023-04-24T10:10:44;24.00;93.10
40654;DHT22;26344;45.532;9.232;2023-04-24T10:13:10;24.10;93.10
40654;DHT22;26344;45.532;9.232;2023-04-24T10:15:36;24.30;92.30
40654;DHT22;26344;45.532;9.232;2023-04-24T10:18:02;24.40;91.90
40654;DHT22;26344;45.532;9.232;2023-04-24T10:20:29;24.60;91.90
40654;DHT22;26344;45.532;9.232;2023-04-24T10:22:56;24.70;92.10
40654;DHT22;26344;45.532;9.232;2023-04-24T10:25:32;24.60;91.60
40654;DHT22;26344;45.532;9.232;2023-04-24T10:27:58;24.60;91.90
40654;DHT22;26344;45.532;9.232;2023-04-24T10:30:25;24.60;91.80
40654;DHT22;26344;45.532;9.232;2023-04-24T10:32:51;24.70;91.60
40654;DHT22;26344;45.532;9.232;2023-04-24T10:35:17;24.80;91.50
40654;DHT22;26344;45.532;9.232;2023-04-24T10:37:45;24.80;91.10
40654;DHT22;26344;45.532;9.232;2023-04-24T10:40:12;24.80;90.40
40654;DHT22;26344;45.532;9.232;2023-04-24T10:42:41;24.70;90.00
40654;DHT22;26344;45.532;9.232;2023-04-24T10:45:15;24.70;89.70
40654;DHT22;26344;45.532;9.232;2023-04-24T10:47:41;24.80;89.60
40654;DHT22;26344;45.532;9.232;2023-04-24T10:50:09;24.90;89.00
40654;DHT22;26344;45.532;9.232;2023-04-24T10:52:44;24.90;88.70
40654;DHT22;26344;45.532;9.232;2023-04-24T10:55:10;24.80;86.80
40654;DHT22;26344;45.532;9.232;2023-04-24T10:57:37;24.80;87.30
40654;DHT22;26344;45.532;9.232;2023-04-24T11:00:10;24.80;86.30
40654;DHT22;26344;45.532;9.232;2023-04-24T11:02:37;24.10;85.50
40654;DHT22;26344;45.532;9.232;2023-04-24T11:05:03;25.00;86.00
40654;DHT22;26344;45.532;9.232;2023-04-24T11:07:29;25.20;86.00
40654;DHT22;26344;45.532;9.232;2023-04-24T11:09:58;25.30;85.90
40654;DHT22;26344;45.532;9.232;2023-04-24T11:12:26;25.60;85.30
40654;DHT22;26344;45.532;9.232;2023-04-24T11:14:59;25.70;84.50
40654;DHT22;26344;45.532;9.232;2023-04-24T11:17:32;25.60;82.30
40654;DHT22;26344;45.532;9.232;2023-04-24T11:20:02;25.50;81.80
40654;DHT22;26344;45.532;9.232;2023-04-24T11:22:29;25.50;82.30
40654;DHT22;26344;45.532;9.232;2023-04-24T11:24:57;25.60;81.80
40654;DHT22;26344;45.532;9.232;2023-04-24T11:27:25;25.70;82.10
40654;DHT22;26344;45.532;9.232;2023-04-24T11:32:30;25.70;81.60
40654;DHT22;26344;45.532;9.232;2023-04-24T11:35:12;25.70;82.10
40654;DHT22;26344;45.532;9.232;2023-04-24T11:37:40;25.80;82.60
40654;DHT22;26344;45.532;9.232;2023-04-24T11:40:06;25.80;82.30
40654;DHT22;26344;45.532;9.232;2023-04-24T11:42:36;25.80;82.40
40654;DHT22;26344;45.532;9.232;2023-04-24T11:45:02;25.80;82.20
40654;DHT22;26344;45.532;9.232;2023-04-24T11:47:32;25.90;82.30
40654;DHT22;26344;45.532;9.232;2023-04-24T11:49:59;26.10;82.40
40654;DHT22;26344;45.532;9.232;2023-04-24T11:52:25;26.10;81.00
40654;DHT22;26344;45.532;9.232;2023-04-24T11:54:50;26.20;78.70
40654;DHT22;26344;45.532;9.232;2023-04-24T11:57:18;26.10;78.10
40654;DHT22;26344;45.532;9.232;2023-04-24T11:59:44;26.20;78.80
40654;DHT22;26344;45.532;9.232;2023-04-24T12:02:19;26.30;79.10
40654;DHT22;26344;45.532;9.232;2023-04-24T12:04:45;26.30;79.30
40654;DHT22;26344;45.532;9.232;2023-04-24T12:07:10;26.30;79.60
40654;DHT22;26344;45.532;9.232;2023-04-24T12:09:42;26.40;79.40
40654;DHT22;26344;45.532;9.232;2023-04-24T12:12:08;26.50;79.80
40654;DHT22;26344;45.532;9.232;2023-04-24T12:14:50;26.60;80.10
40654;DHT22;26344;45.532;9.232;2023-04-24T12:17:16;26.70;80.10
40654;DHT22;26344;45.532;9.232;2023-04-24T12:19:47;26.70;79.50
40654;DHT22;26344;45.532;9.232;2023-04-24T12:22:13;26.80;79.30
40654;DHT22;26344;45.532;9.232;2023-04-24T12:24:58;26.70;78.90
40654;DHT22;26344;45.532;9.232;2023-04-24T12:27:24;26.90;79.70
40654;DHT22;26344;45.532;9.232;2023-04-24T12:29:56;27.00;79.00
40654;DHT22;26344;45.532;9.232;2023-04-24T12:32:21;27.10;77.00
40654;DHT22;26344;45.532;9.232;2023-04-24T12:34:49;27.10;76.70
40654;DHT22;26344;45.532;9.232;2023-04-24T12:37:14;27.10;75.40
40654;DHT22;26344;45.532;9.232;2023-04-24T12:39:44;27.20;74.80
40654;DHT22;26344;45.532;9.232;2023-04-24T12:42:09;27.10;74.90
40654;DHT22;26344;45.532;9.232;2023-04-24T12:44:36;27.10;74.90
40654;DHT22;26344;45.532;9.232;2023-04-24T12:47:02;27.20;74.60
40654;DHT22;26344;45.532;9.232;2023-04-24T12:49:29;27.10;74.00
40654;DHT22;26344;45.532;9.232;2023-04-24T12:51:55;27.10;74.10
40654;DHT22;26344;45.532;9.232;2023-04-24T12:54:21;27.10;73.60
40654;DHT22;26344;45.532;9.232;2023-04-24T12:56:47;26.90;72.80
40654;DHT22;26344;45.532;9.232;2023-04-24T12:59:12;26.80;72.20
40654;DHT22;26344;45.532;9.232;2023-04-24T13:01:38;26.90;72.00
40654;DHT22;26344;45.532;9.232;2023-04-24T13:04:04;27.00;72.10
40654;DHT22;26344;45.532;9.232;2023-04-24T13:06:31;27.10;72.20
40654;DHT22;26344;45.532;9.232;2023-04-24T13:08:57;27.10;72.60
40654;DHT22;26344;45.532;9.232;2023-04-24T13:11:23;27.10;72.20
40654;DHT22;26344;45.532;9.232;2023-04-24T13:13:49;26.90;71.40
40654;DHT22;26344;45.532;9.232;2023-04-24T13:16:14;26.70;72.20
40654;DHT22;26344;45.532;9.232;2023-04-24T13:18:40;26.70;72.40
40654;DHT22;26344;45.532;9.232;2023-04-24T13:21:05;26.80;72.20
40654;DHT22;26344;45.532;9.232;2023-04-24T13:23:31;26.90;70.70
40654;DHT22;26344;45.532;9.232;2023-04-24T13:25:57;26.10;70.30
40654;DHT22;26344;45.532;9.232;2023-04-24T13:28:26;27.10;70.40
40654;DHT22;26344;45.532;9.232;2023-04-24T13:30:52;27.00;70.20
40654;DHT22;26344;45.532;9.232;2023-04-24T13:33:18;26.80;69.20
40654;DHT22;26344;45.532;9.232;2023-04-24T13:35:43;26.70;69.10
40654;DHT22;26344;45.532;9.232;2023-04-24T13:38:09;26.70;69.20
40654;DHT22;26344;45.532;9.232;2023-04-24T13:40:35;26.60;68.00
40654;DHT22;26344;45.532;9.232;2023-04-24T13:43:01;26.50;64.90
40654;DHT22;26344;45.532;9.232;2023-04-24T13:45:27;26.40;65.80
40654;DHT22;26344;45.532;9.232;2023-04-24T13:47:53;26.50;65.60
40654;DHT22;26344;45.532;9.232;2023-04-24T13:50:22;26.40;65.00
40654;DHT22;26344;45.532;9.232;2023-04-24T13:52:47;26.40;65.90
40654;DHT22;26344;45.532;9.232;2023-04-24T13:55:13;26.50;64.40
40654;DHT22;26344;45.532;9.232;2023-04-24T13:57:38;26.50;62.30
40654;DHT22;26344;45.532;9.232;2023-04-24T14:00:04;26.50;62.80
40654;DHT22;26344;45.532;9.232;2023-04-24T14:02:31;26.40;60.30
40654;DHT22;26344;45.532;9.232;2023-04-24T14:04:56;26.30;57.50
40654;DHT22;26344;45.532;9.232;2023-04-24T14:07:22;26.40;57.20
40654;DHT22;26344;45.532;9.232;2023-04-24T14:09:47;26.50;57.70
40654;DHT22;26344;45.532;9.232;2023-04-24T14:12:13;26.50;58.20
40654;DHT22;26344;45.532;9.232;2023-04-24T14:14:39;26.40;57.60
40654;DHT22;26344;45.532;9.232;2023-04-24T14:17:05;26.40;57.50
40654;DHT22;26344;45.532;9.232;2023-04-24T14:19:31;26.40;57.90
40654;DHT22;26344;45.532;9.232;2023-04-24T14:21:59;26.30;58.50
40654;DHT22;26344;45.532;9.232;2023-04-24T14:24:24;26.30;58.20
40654;DHT22;26344;45.532;9.232;2023-04-24T14:26:50;26.30;58.60
40654;DHT22;26344;45.532;9.232;2023-04-24T14:29:15;26.30;58.70
40654;DHT22;26344;45.532;9.232;2023-04-24T14:31:42;26.30;58.00
40654;DHT22;26344;45.532;9.232;2023-04-24T14:34:08;26.20;57.60
40654;DHT22;26344;45.532;9.232;2023-04-24T14:36:33;26.20;57.80
40654;DHT22;26344;45.532;9.232;2023-04-24T14:38:59;26.10;58.10
40654;DHT22;26344;45.532;9.232;2023-04-24T14:41:24;26.20;58.00
40654;DHT22;26344;45.532;9.232;2023-04-24T14:43:50;26.10;57.50
40654;DHT22;26344;45.532;9.232;2023-04-24T14:46:15;26.10;57.20
40654;DHT22;26344;45.532;9.232;2023-04-24T14:48:41;26.00;56.90
40654;DHT22;26344;45.532;9.232;2023-04-24T14:51:06;26.00;57.10
40654;DHT22;26344;45.532;9.232;2023-04-24T14:53:32;25.90;56.90
40654;DHT22;26344;45.532;9.232;2023-04-24T14:55:57;25.80;57.10
40654;DHT22;26344;45.532;9.232;2023-04-24T14:58:23;25.70;57.50
40654;DHT22;26344;45.532;9.232;2023-04-24T15:00:48;25.30;58.00
40654;DHT22;26344;45.532;9.232;2023-04-24T15:03:19;25.70;58.20
40654;DHT22;26344;45.532;9.232;2023-04-24T15:05:45;25.80;59.00
40654;DHT22;26344;45.532;9.232;2023-04-24T15:08:11;25.80;57.50
40654;DHT22;26344;45.532;9.232;2023-04-24T15:10:36;25.80;57.50
40654;DHT22;26344;45.532;9.232;2023-04-24T15:13:02;25.80;56.80
40654;DHT22;26344;45.532;9.232;2023-04-24T15:15:27;25.80;57.00
40654;DHT22;26344;45.532;9.232;2023-04-24T15:17:53;25.80;56.90
40654;DHT22;26344;45.532;9.232;2023-04-24T15:20:18;25.70;56.90
40654;DHT22;26344;45.532;9.232;2023-04-24T15:22:44;25.70;57.50
40654;DHT22;26344;45.532;9.232;2023-04-24T15:25:10;25.60;57.00
40654;DHT22;26344;45.532;9.232;2023-04-24T15:27:39;25.60;57.30
40654;DHT22;26344;45.532;9.232;2023-04-24T15:30:05;25.60;56.90
40654;DHT22;26344;45.532;9.232;2023-04-24T15:32:31;25.50;56.80
40654;DHT22;26344;45.532;9.232;2023-04-24T15:34:56;25.50;56.90
40654;DHT22;26344;45.532;9.232;2023-04-24T15:37:22;25.40;56.70
40654;DHT22;26344;45.532;9.232;2023-04-24T15:39:47;25.40;56.80
40654;DHT22;26344;45.532;9.232;2023-04-24T15:42:13;25.30;56.60
40654;DHT22;26344;45.532;9.232;2023-04-24T15:44:38;25.30;56.40
40654;DHT22;26344;45.532;9.232;2023-04-24T15:47:04;25.20;56.40
40654;DHT22;26344;45.532;9.232;2023-04-24T15:49:29;25.20;56.70
40654;DHT22;26344;45.532;9.232;2023-04-24T15:51:56;25.20;56.40
40654;DHT22;26344;45.532;9.232;2023-04-24T15:54:21;25.10;57.00
40654;DHT22;26344;45.532;9.232;2023-04-24T15:56:49;25.10;57.60
40654;DHT22;26344;45.532;9.232;2023-04-24T15:59:14;25.10;57.90
40654;DHT22;26344;45.532;9.232;2023-04-24T16:01:40;25.00;58.10
40654;DHT22;26344;45.532;9.232;2023-04-24T16:04:06;25.00;58.10
40654;DHT22;26344;45.532;9.232;2023-04-24T16:06:31;24.90;57.90
40654;DHT22;26344;45.532;9.232;2023-04-24T16:08:57;24.80;57.60
40654;DHT22;26344;45.532;9.232;2023-04-24T16:11:22;24.80;57.40
40654;DHT22;26344;45.532;9.232;2023-04-24T16:13:48;24.80;57.10
40654;DHT22;26344;45.532;9.232;2023-04-24T16:16:13;24.60;57.30
40654;DHT22;26344;45.532;9.232;2023-04-24T16:18:38;24.60;57.70
40654;DHT22;26344;45.532;9.232;2023-04-24T16:21:04;24.70;58.00
40654;DHT22;26344;45.532;9.232;2023-04-24T16:23:30;24.70;58.10
40654;DHT22;26344;45.532;9.232;2023-04-24T16:25:55;24.70;58.10
40654;DHT22;26344;45.532;9.232;2023-04-24T16:28:21;24.60;58.10
40654;DHT22;26344;45.532;9.232;2023-04-24T16:30:48;24.50;58.20
40654;DHT22;26344;45.532;9.232;2023-04-24T16:33:13;24.60;58.20
40654;DHT22;26344;45.532;9.232;2023-04-24T16:35:40;24.70;58.20
40654;DHT22;26344;45.532;9.232;2023-04-24T16:38:05;24.70;58.10
40654;DHT22;26344;45.532;9.232;2023-04-24T16:40:31;24.60;57.50
40654;DHT22;26344;45.532;9.232;2023-04-24T16:42:56;24.60;57.20
40654;DHT22;26344;45.532;9.232;2023-04-24T16:45:22;24.50;57.10
40654;DHT22;26344;45.532;9.232;2023-04-24T16:47:47;24.50;57.70
40654;DHT22;26344;45.532;9.232;2023-04-24T16:50:13;24.50;57.80
40654;DHT22;26344;45.532;9.232;2023-04-24T16:52:39;24.60;57.90
40654;DHT22;26344;45.532;9.232;2023-04-24T16:55:05;24.60;57.70
40654;DHT22;26344;45.532;9.232;2023-04-24T16:57:30;24.60;57.50
40654;DHT22;26344;45.532;9.232;2023-04-24T16:59:56;24.60;57.50
40654;DHT22;26344;45.532;9.232;2023-04-24T17:02:21;21.70;56.00
40654;DHT22;26344;45.532;9.232;2023-04-24T17:04:47;24.70;57.60
40654;DHT22;26344;45.532;9.232;2023-04-24T17:07:12;24.70;57.40
40654;DHT22;26344;45.532;9.232;2023-04-24T17:09:38;25.10;57.60
40654;DHT22;26344;45.532;9.232;2023-04-24T17:12:03;24.60;57.60
40654;DHT22;26344;45.532;9.232;2023-04-24T17:14:29;25.20;58.00
40654;DHT22;26344;45.532;9.232;2023-04-24T17:16:55;24.60;57.80
40654;DHT22;26344;45.532;9.232;2023-04-24T17:19:20;24.50;58.10
40654;DHT22;26344;45.532;9.232;2023-04-24T17:21:46;24.50;58.50
40654;DHT22;26344;45.532;9.232;2023-04-24T17:24:12;24.50;58.60
40654;DHT22;26344;45.532;9.232;2023-04-24T17:26:38;24.60;59.00
40654;DHT22;26344;45.532;9.232;2023-04-24T17:29:04;24.60;61.10
40654;DHT22;26344;45.532;9.232;2023-04-24T17:31:29;24.60;59.20
40654;DHT22;26344;45.532;9.232;2023-04-24T17:33:55;24.60;59.40
40654;DHT22;26344;45.532;9.232;2023-04-24T17:36:20;24.50;59.60
40654;DHT22;26344;45.532;9.232;2023-04-24T17:38:46;24.50;59.50
40654;DHT22;26344;45.532;9.232;2023-04-24T17:41:12;24.50;60.00
40654;DHT22;26344;45.532;9.232;2023-04-24T17:43:40;24.50;59.60
40654;DHT22;26344;45.532;9.232;2023-04-24T17:46:06;24.40;59.90
40654;DHT22;26344;45.532;9.232;2023-04-24T17:48:32;24.40;60.30
40654;DHT22;26344;45.532;9.232;2023-04-24T17:50:57;24.30;60.20
40654;DHT22;26344;45.532;9.232;2023-04-24T17:53:23;24.30;60.50
40654;DHT22;26344;45.532;9.232;2023-04-24T17:55:48;24.30;60.60
40654;DHT22;26344;45.532;9.232;2023-04-24T17:58:14;24.30;60.80
40654;DHT22;26344;45.532;9.232;2023-04-24T18:00:40;24.20;61.00
40654;DHT22;26344;45.532;9.232;2023-04-24T18:03:06;24.20;61.10
40654;DHT22;26344;45.532;9.232;2023-04-24T18:05:32;24.20;61.00
40654;DHT22;26344;45.532;9.232;2023-04-24T18:07:58;24.10;60.90
40654;DHT22;26344;45.532;9.232;2023-04-24T18:10:27;24.10;61.40
40654;DHT22;26344;45.532;9.232;2023-04-24T18:12:52;24.00;61.40
40654;DHT22;26344;45.532;9.232;2023-04-24T18:15:18;24.10;61.50
40654;DHT22;26344;45.532;9.232;2023-04-24T18:17:44;24.00;62.10
40654;DHT22;26344;45.532;9.232;2023-04-24T18:20:10;24.00;62.20
40654;DHT22;26344;45.532;9.232;2023-04-24T18:22:36;23.80;62.20
40654;DHT22;26344;45.532;9.232;2023-04-24T18:25:01;23.90;62.30
40654;DHT22;26344;45.532;9.232;2023-04-24T18:27:27;23.90;62.00
40654;DHT22;26344;45.532;9.232;2023-04-24T18:29:55;23.80;62.00
40654;DHT22;26344;45.532;9.232;2023-04-24T18:32:21;23.80;62.10
40654;DHT22;26344;45.532;9.232;2023-04-24T18:34:47;23.70;63.00
40654;DHT22;26344;45.532;9.232;2023-04-24T18:37:13;23.70;62.70
40654;DHT22;26344;45.532;9.232;2023-04-24T18:39:39;23.60;63.00
40654;DHT22;26344;45.532;9.232;2023-04-24T18:42:04;23.60;63.10
40654;DHT22;26344;45.532;9.232;2023-04-24T18:44:30;23.60;63.60
40654;DHT22;26344;45.532;9.232;2023-04-24T18:46:55;23.50;63.80